createdAt,value
2018-06-14T00:01:32.474Z,12.30
2018-06-14T00:04:00.118Z,11.78
2018-06-14T00:06:27.777Z,11.79
2018-06-14T00:08:55.423Z,11.77
2018-06-14T00:11:23.301Z,11.86
2018-06-14T00:13:50.976Z,12.29
2018-06-14T00:16:18.637Z,11.75
2018-06-14T00:18:46.301Z,11.66
2018-06-14T00:21:13.993Z,11.94
2018-06-14T00:23:41.637Z,11.97
2018-06-14T00:26:09.297Z,12.17
2018-06-14T00:28:36.951Z,12.50
2018-06-14T00:31:04.608Z,12.67
2018-06-14T00:33:32.252Z,12.33
2018-06-14T00:35:59.947Z,12.59
2018-06-14T00:38:27.637Z,12.62
2018-06-14T00:40:55.302Z,12.66
2018-06-14T00:43:22.957Z,12.69
2018-06-14T00:45:50.645Z,12.68
2018-06-14T00:48:18.313Z,12.69
2018-06-14T00:50:46.005Z,11.97
2018-06-14T00:53:13.677Z,11.87
2018-06-14T00:55:41.361Z,12.24
2018-06-14T00:58:09.021Z,12.21
2018-06-14T01:00:36.701Z,12.26
2018-06-14T01:03:04.372Z,12.16
2018-06-14T01:05:32.085Z,12.43
2018-06-14T01:07:59.769Z,12.41
2018-06-14T01:10:27.417Z,12.28
2018-06-14T01:12:55.098Z,12.41
2018-06-14T01:15:22.749Z,12.32
2018-06-14T01:17:50.405Z,12.14
2018-06-14T01:20:18.175Z,12.10
2018-06-14T01:22:45.842Z,12.24
2018-06-14T01:25:13.551Z,12.29
2018-06-14T01:27:41.413Z,12.32
2018-06-14T01:30:09.158Z,12.22
2018-06-14T01:32:36.810Z,12.19
2018-06-14T01:35:04.695Z,12.16
2018-06-14T01:37:43.630Z,12.06
2018-06-14T01:40:11.329Z,12.02
2018-06-14T01:42:39.049Z,12.11
2018-06-14T01:45:06.734Z,12.19
2018-06-14T01:47:34.429Z,12.25
2018-06-14T01:50:02.349Z,12.39
2018-06-14T01:52:30.011Z,12.29
2018-06-14T01:54:57.734Z,12.42
2018-06-14T01:57:25.426Z,12.34
2018-06-14T01:59:53.081Z,12.34
2018-06-14T02:02:20.813Z,12.43
2018-06-14T02:04:48.528Z,12.59
2018-06-14T02:07:16.419Z,12.57
2018-06-14T02:09:44.129Z,12.56
2018-06-14T02:12:11.901Z,12.39
2018-06-14T02:14:39.701Z,12.63
2018-06-14T02:17:07.399Z,12.71
2018-06-14T02:19:35.070Z,12.64
2018-06-14T02:22:02.721Z,12.43
2018-06-14T02:24:30.505Z,12.58
2018-06-14T02:26:58.469Z,12.56
2018-06-14T02:29:26.140Z,12.76
2018-06-14T02:31:53.816Z,12.73
2018-06-14T02:34:21.477Z,12.72
2018-06-14T02:36:49.182Z,12.80
2018-06-14T02:39:17.104Z,12.87
2018-06-14T02:41:44.763Z,12.78
2018-06-14T02:44:12.485Z,12.77
2018-06-14T02:46:40.126Z,12.72
2018-06-14T02:49:07.778Z,12.88
2018-06-14T02:51:35.441Z,12.90
2018-06-14T02:54:03.290Z,12.76
2018-06-14T02:56:31.078Z,12.89
2018-06-14T02:58:58.938Z,12.94
2018-06-14T03:01:26.892Z,12.86
2018-06-14T03:03:54.776Z,12.80
2018-06-14T03:06:22.545Z,12.88
2018-06-14T03:08:50.906Z,12.97
2018-06-14T03:11:19.773Z,12.98
2018-06-14T03:13:47.887Z,13.03
2018-06-14T03:16:15.743Z,13.10
2018-06-14T03:18:44.128Z,13.15
2018-06-14T03:21:11.826Z,13.04
2018-06-14T03:23:39.674Z,13.03
2018-06-14T03:26:07.446Z,13.04
2018-06-14T03:28:35.157Z,12.85
2018-06-14T03:31:02.930Z,13.00
2018-06-14T03:33:30.589Z,13.02
2018-06-14T03:35:58.277Z,13.05
2018-06-14T03:38:26.293Z,13.19
2018-06-14T03:40:54.063Z,12.74
2018-06-14T03:43:21.770Z,13.13
2018-06-14T03:45:49.536Z,13.16
2018-06-14T03:48:17.227Z,13.03
2018-06-14T03:50:44.907Z,12.97
2018-06-14T03:53:12.626Z,13.02
2018-06-14T03:55:40.278Z,13.05
2018-06-14T03:58:08.003Z,13.13
2018-06-14T04:00:36.448Z,13.14
2018-06-14T04:03:04.118Z,13.15
2018-06-14T04:05:31.786Z,13.08
2018-06-14T04:07:59.746Z,13.13
2018-06-14T04:10:27.426Z,13.10
2018-06-14T04:12:55.105Z,13.20
2018-06-14T04:15:22.767Z,13.18
2018-06-14T04:17:57.377Z,13.17
2018-06-14T04:20:25.057Z,13.16
2018-06-14T04:22:52.722Z,13.17
2018-06-14T04:25:20.374Z,13.09
2018-06-14T04:27:48.120Z,13.15
2018-06-14T04:30:15.942Z,13.10
2018-06-14T04:32:43.589Z,13.21
2018-06-14T04:35:11.442Z,13.23
2018-06-14T04:37:39.081Z,13.23
2018-06-14T04:40:06.798Z,13.14
2018-06-14T04:42:34.750Z,13.05
2018-06-14T04:45:02.432Z,13.11
2018-06-14T04:47:30.138Z,13.18
2018-06-14T04:49:57.791Z,13.28
2018-06-14T04:52:25.439Z,13.21
2018-06-14T04:54:53.138Z,13.25
2018-06-14T04:57:20.826Z,13.19
2018-06-14T04:59:48.487Z,13.09
2018-06-14T05:02:16.144Z,13.17
2018-06-14T05:04:43.950Z,13.14
2018-06-14T05:07:11.658Z,13.26
2018-06-14T05:09:39.305Z,13.18
2018-06-14T05:12:07.045Z,13.13
2018-06-14T05:14:34.704Z,13.25
2018-06-14T05:17:02.430Z,13.28
2018-06-14T05:19:30.094Z,13.31
2018-06-14T05:21:57.836Z,13.38
2018-06-14T05:24:25.494Z,13.37
2018-06-14T05:26:53.178Z,13.36
2018-06-14T05:29:20.830Z,13.39
2018-06-14T05:31:48.514Z,13.38
2018-06-14T05:34:16.195Z,13.38
2018-06-14T05:36:43.856Z,13.37
2018-06-14T05:39:12.340Z,13.36
2018-06-14T05:41:40.445Z,13.36
2018-06-14T05:44:08.129Z,13.40
2018-06-14T05:46:35.791Z,13.37
2018-06-14T05:49:03.815Z,13.35
2018-06-14T05:51:31.493Z,13.39
2018-06-14T05:53:59.203Z,13.35
2018-06-14T05:56:26.878Z,13.37
2018-06-14T05:58:54.707Z,13.33
2018-06-14T06:01:22.418Z,13.45
2018-06-14T06:03:50.246Z,13.47
2018-06-14T06:06:17.898Z,13.50
2018-06-14T06:08:45.574Z,13.43
2018-06-14T06:11:13.227Z,13.47
2018-06-14T06:13:40.897Z,13.43
2018-06-14T06:16:08.546Z,13.40
2018-06-14T06:18:36.275Z,13.52
2018-06-14T06:21:03.953Z,13.50
2018-06-14T06:23:31.672Z,13.56
2018-06-14T06:25:59.285Z,13.56
2018-06-14T06:28:26.985Z,13.54
2018-06-14T06:30:54.658Z,13.56
2018-06-14T06:33:22.437Z,13.51
2018-06-14T06:35:50.115Z,13.52
2018-06-14T06:38:17.781Z,13.68
2018-06-14T06:40:45.433Z,13.72
2018-06-14T06:43:13.141Z,13.74
2018-06-14T06:45:40.833Z,13.83
2018-06-14T06:48:08.483Z,13.18
2018-06-14T06:50:36.262Z,13.99
2018-06-14T06:53:03.968Z,14.03
2018-06-14T06:55:31.638Z,14.08
2018-06-14T06:57:59.306Z,14.16
2018-06-14T07:00:27.020Z,14.26
2018-06-14T07:02:54.677Z,14.29
2018-06-14T07:05:22.354Z,14.37
2018-06-14T07:07:49.992Z,14.39
2018-06-14T07:10:17.698Z,14.37
2018-06-14T07:12:45.353Z,14.38
2018-06-14T07:15:19.685Z,14.43
2018-06-14T07:17:47.342Z,14.42
2018-06-14T07:20:15.010Z,14.36
2018-06-14T07:22:42.815Z,14.36
2018-06-14T07:25:10.458Z,14.39
2018-06-14T07:27:38.184Z,14.48
2018-06-14T07:30:05.986Z,14.55
2018-06-14T07:32:33.697Z,14.60
2018-06-14T07:35:01.414Z,14.68
2018-06-14T07:37:29.114Z,14.71
2018-06-14T07:39:56.798Z,14.77
2018-06-14T07:42:31.164Z,14.81
2018-06-14T07:44:58.816Z,14.91
2018-06-14T07:47:26.501Z,14.99
2018-06-14T07:49:54.202Z,15.10
2018-06-14T07:52:21.867Z,15.14
2018-06-14T07:54:49.538Z,15.21
2018-06-14T07:57:17.208Z,15.25
2018-06-14T07:59:44.866Z,15.33
2018-06-14T08:02:12.552Z,15.44
2018-06-14T08:04:40.401Z,15.46
2018-06-14T08:07:08.074Z,15.50
2018-06-14T08:09:35.745Z,15.52
2018-06-14T08:12:03.414Z,15.57
2018-06-14T08:14:31.095Z,15.62
2018-06-14T08:16:58.742Z,15.66
2018-06-14T08:19:26.392Z,15.68
2018-06-14T08:21:54.039Z,15.73
2018-06-14T08:24:21.710Z,15.74
2018-06-14T08:26:49.374Z,15.81
2018-06-14T08:29:17.037Z,15.84
2018-06-14T08:31:44.709Z,15.91
2018-06-14T08:34:12.381Z,15.94
2018-06-14T08:36:40.043Z,15.99
2018-06-14T08:39:08.618Z,15.99
2018-06-14T08:41:36.310Z,16.02
2018-06-14T08:44:04.249Z,16.05
2018-06-14T08:46:31.939Z,16.06
2018-06-14T08:48:59.950Z,16.19
2018-06-14T08:51:27.655Z,16.22
2018-06-14T08:53:55.333Z,16.23
2018-06-14T08:56:23.042Z,16.28
2018-06-14T08:58:50.714Z,16.30
2018-06-14T09:01:18.390Z,16.33
2018-06-14T09:03:46.121Z,16.34
2018-06-14T09:06:13.810Z,16.33
2018-06-14T09:08:41.481Z,16.34
2018-06-14T09:11:09.198Z,16.31
2018-06-14T09:13:36.875Z,16.37
2018-06-14T09:16:04.542Z,16.35
2018-06-14T09:18:32.239Z,16.45
2018-06-14T09:20:59.918Z,16.50
2018-06-14T09:23:27.613Z,16.49
2018-06-14T09:25:55.295Z,16.54
2018-06-14T09:28:22.966Z,16.54
2018-06-14T09:30:50.666Z,16.58
2018-06-14T09:33:18.354Z,16.58
2018-06-14T09:35:46.093Z,16.59
2018-06-14T09:38:13.814Z,16.59
2018-06-14T09:40:41.834Z,16.61
2018-06-14T09:43:09.518Z,16.63
2018-06-14T09:45:37.276Z,16.63
2018-06-14T09:48:05.114Z,16.65
2018-06-14T09:50:32.861Z,16.69
2018-06-14T09:53:00.583Z,16.62
2018-06-14T09:55:28.447Z,16.70
2018-06-14T09:57:56.241Z,16.75
2018-06-14T10:00:23.986Z,14.85
2018-06-14T10:02:51.621Z,16.79
2018-06-14T10:05:19.364Z,16.80
2018-06-14T10:07:47.046Z,16.80
2018-06-14T10:10:14.727Z,16.82
2018-06-14T10:12:42.414Z,16.81
2018-06-14T10:15:10.082Z,16.84
2018-06-14T10:17:37.764Z,16.85
2018-06-14T10:20:05.441Z,16.81
2018-06-14T10:22:33.126Z,16.87
2018-06-14T10:25:00.793Z,16.99
2018-06-14T10:27:28.470Z,17.09
2018-06-14T10:29:56.137Z,17.15
2018-06-14T10:32:23.812Z,17.23
2018-06-14T10:34:51.465Z,17.25
2018-06-14T10:37:19.218Z,17.30
2018-06-14T10:39:46.862Z,17.45
2018-06-14T10:42:14.829Z,17.51
2018-06-14T10:44:42.494Z,17.56
2018-06-14T10:47:10.238Z,17.56
2018-06-14T10:49:37.901Z,17.55
2018-06-14T10:52:05.592Z,17.54
2018-06-14T10:54:33.412Z,17.60
2018-06-14T10:57:01.090Z,17.66
2018-06-14T10:59:28.854Z,17.74
2018-06-14T11:01:56.502Z,17.70
2018-06-14T11:04:24.169Z,17.70
2018-06-14T11:06:51.838Z,17.72
2018-06-14T11:09:19.671Z,17.80
2018-06-14T11:11:47.442Z,17.87
2018-06-14T11:14:15.121Z,17.90
2018-06-14T11:16:42.847Z,17.98
2018-06-14T11:19:10.501Z,18.04
2018-06-14T11:21:38.186Z,17.98
2018-06-14T11:24:05.838Z,18.04
2018-06-14T11:26:33.505Z,18.03
2018-06-14T11:29:01.166Z,18.04
2018-06-14T11:31:28.881Z,18.07
2018-06-14T11:33:56.529Z,18.10
2018-06-14T11:36:24.196Z,18.13
2018-06-14T11:38:51.873Z,18.12
2018-06-14T11:41:19.570Z,18.14
2018-06-14T11:43:47.248Z,18.19
2018-06-14T11:46:15.299Z,18.22
2018-06-14T11:48:42.978Z,18.29
2018-06-14T11:51:10.618Z,18.33
2018-06-14T11:53:38.308Z,18.34
2018-06-14T11:56:06.001Z,18.37
2018-06-14T11:58:33.670Z,18.38
2018-06-14T12:01:01.367Z,18.36
2018-06-14T12:03:29.045Z,18.38
2018-06-14T12:05:56.722Z,18.49
2018-06-14T12:08:24.636Z,18.54
2018-06-14T12:10:52.378Z,18.62
2018-06-14T12:13:20.056Z,18.65
2018-06-14T12:15:47.746Z,18.62
2018-06-14T12:18:15.414Z,18.63
2018-06-14T12:20:43.096Z,18.66
2018-06-14T12:23:10.802Z,18.70
2018-06-14T12:25:38.498Z,18.81
2018-06-14T12:28:06.242Z,18.83
2018-06-14T12:30:33.950Z,18.81
2018-06-14T12:33:01.747Z,18.85
2018-06-14T12:35:29.402Z,18.88
2018-06-14T12:37:57.085Z,18.91
2018-06-14T12:40:24.778Z,18.93
2018-06-14T12:42:52.440Z,18.94
2018-06-14T12:45:20.206Z,18.99
2018-06-14T12:47:47.893Z,19.00
2018-06-14T12:50:15.584Z,19.03
2018-06-14T12:52:43.293Z,19.00
2018-06-14T12:55:10.978Z,19.03
2018-06-14T12:57:38.638Z,19.03
2018-06-14T13:00:06.341Z,19.07
2018-06-14T13:02:34.070Z,19.10
2018-06-14T13:05:01.763Z,19.09
2018-06-14T13:07:29.462Z,19.14
2018-06-14T13:09:57.109Z,19.18
2018-06-14T13:12:24.785Z,19.16
2018-06-14T13:14:52.478Z,19.14
2018-06-14T13:17:20.166Z,19.13
2018-06-14T13:19:47.825Z,18.75
2018-06-14T13:22:15.730Z,19.10
2018-06-14T13:24:44.016Z,19.11
2018-06-14T13:27:12.914Z,19.14
2018-06-14T13:29:40.897Z,19.15
2018-06-14T13:32:08.656Z,19.20
2018-06-14T13:34:36.621Z,19.24
2018-06-14T13:37:04.690Z,19.27
2018-06-14T13:39:32.378Z,19.37
2018-06-14T13:42:00.118Z,19.41
2018-06-14T13:44:27.870Z,19.40
2018-06-14T13:46:55.582Z,19.42
2018-06-14T13:49:23.305Z,19.47
2018-06-14T13:51:50.974Z,19.49
2018-06-14T13:54:18.639Z,19.54
2018-06-14T13:56:46.414Z,19.54
2018-06-14T13:59:14.125Z,19.50
2018-06-14T14:01:41.789Z,19.53
2018-06-14T14:04:09.477Z,19.52
2018-06-14T14:06:37.167Z,19.49
2018-06-14T14:09:07.705Z,19.43
2018-06-14T14:11:35.370Z,19.38
2018-06-14T14:14:03.050Z,19.39
2018-06-14T14:16:30.730Z,19.37
2018-06-14T14:18:58.393Z,19.35
2018-06-14T14:21:26.236Z,19.36
2018-06-14T14:23:53.945Z,19.35
2018-06-14T14:26:21.598Z,19.29
2018-06-14T14:28:49.363Z,19.33
2018-06-14T14:31:17.016Z,19.33
2018-06-14T14:33:44.757Z,19.35
2018-06-14T14:36:12.614Z,19.36
2018-06-14T14:38:40.366Z,19.35
2018-06-14T14:41:08.080Z,19.32
2018-06-14T14:43:35.758Z,19.35
2018-06-14T14:46:03.442Z,19.39
2018-06-14T14:48:31.129Z,19.41
2018-06-14T14:50:58.814Z,19.43
2018-06-14T14:53:26.519Z,19.38
2018-06-14T14:55:54.194Z,19.44
2018-06-14T14:58:22.066Z,19.48
2018-06-14T15:00:49.803Z,19.49
2018-06-14T15:03:17.461Z,19.42
2018-06-14T15:05:45.146Z,19.37
2018-06-14T15:08:12.810Z,19.40
2018-06-14T15:10:40.490Z,19.42
2018-06-14T15:13:08.227Z,19.47
2018-06-14T15:15:35.969Z,19.49
2018-06-14T15:18:03.670Z,19.49
2018-06-14T15:20:31.374Z,19.50
2018-06-14T15:22:59.077Z,19.46
2018-06-14T15:25:26.745Z,19.44
2018-06-14T15:27:54.416Z,19.42
2018-06-14T15:30:22.094Z,19.42
2018-06-14T15:32:49.746Z,19.47
2018-06-14T15:35:17.422Z,19.50
2018-06-14T15:37:45.109Z,19.50
2018-06-14T15:40:12.782Z,19.44
2018-06-14T15:42:40.484Z,19.51
2018-06-14T15:45:08.260Z,19.50
2018-06-14T15:47:35.926Z,19.54
2018-06-14T15:50:03.666Z,19.48
2018-06-14T15:52:31.394Z,19.45
2018-06-14T15:55:10.215Z,19.50
2018-06-14T15:57:37.950Z,19.51
2018-06-14T16:00:05.752Z,19.52
2018-06-14T16:02:33.451Z,19.50
2018-06-14T16:05:01.179Z,19.41
2018-06-14T16:07:28.887Z,19.35
2018-06-14T16:09:56.579Z,19.20
2018-06-14T16:12:24.282Z,19.34
2018-06-14T16:14:51.998Z,19.13
2018-06-14T16:17:19.782Z,19.21
2018-06-14T16:19:47.531Z,18.94
2018-06-14T16:22:15.259Z,19.14
2018-06-14T16:27:23.216Z,19.13
2018-06-14T16:29:52.034Z,19.19
2018-06-14T16:32:20.967Z,19.15
2018-06-14T16:34:49.974Z,19.12
2018-06-14T16:37:18.795Z,19.01
2018-06-14T16:39:47.580Z,19.08
2018-06-14T16:42:16.422Z,19.08
2018-06-14T16:44:45.279Z,19.07
2018-06-14T16:47:14.101Z,19.06
2018-06-14T16:49:42.914Z,18.96
2018-06-14T16:52:11.737Z,19.00
2018-06-14T16:54:40.528Z,18.96
2018-06-14T16:57:09.312Z,18.93
2018-06-14T16:59:38.107Z,18.92
2018-06-14T17:02:06.873Z,18.94
2018-06-14T17:04:35.670Z,18.87
2018-06-14T17:07:04.422Z,18.85
2018-06-14T17:09:33.206Z,18.83
2018-06-14T17:12:02.036Z,18.86
2018-06-14T17:14:30.810Z,18.84
2018-06-14T17:16:59.606Z,18.82
2018-06-14T17:19:28.414Z,18.88
2018-06-14T17:21:57.171Z,18.94
2018-06-14T17:24:25.954Z,18.97
2018-06-14T17:26:54.736Z,18.87
2018-06-14T17:29:23.476Z,18.77
2018-06-14T17:31:52.249Z,18.81
2018-06-14T17:34:21.191Z,18.98
2018-06-14T17:36:49.998Z,19.08
2018-06-14T17:39:18.753Z,18.79
2018-06-14T17:41:47.534Z,18.91
2018-06-14T17:44:16.322Z,18.84
2018-06-14T17:46:45.067Z,18.71
2018-06-14T17:49:14.020Z,18.87
2018-06-14T17:51:42.790Z,18.94
2018-06-14T17:54:11.669Z,19.01
2018-06-14T17:56:40.453Z,19.05
2018-06-14T17:59:09.238Z,19.06
2018-06-14T18:01:38.145Z,19.01
2018-06-14T18:04:06.921Z,19.00
2018-06-14T18:06:35.682Z,19.01
2018-06-14T18:09:06.297Z,18.98
2018-06-14T18:11:35.073Z,18.92
2018-06-14T18:14:04.435Z,18.90
2018-06-14T18:16:33.237Z,18.92
2018-06-14T18:19:02.027Z,18.96
2018-06-14T18:21:30.958Z,18.87
2018-06-14T18:23:59.726Z,18.84
2018-06-14T18:26:28.518Z,18.93
2018-06-14T18:28:57.315Z,18.90
2018-06-14T18:31:26.078Z,18.94
2018-06-14T18:33:55.165Z,18.82
2018-06-14T18:36:23.986Z,18.81
2018-06-14T18:38:52.784Z,18.79
2018-06-14T18:41:21.559Z,18.79
2018-06-14T18:43:50.380Z,18.70
2018-06-14T18:46:19.188Z,18.66
2018-06-14T18:48:47.966Z,18.62
2018-06-14T18:51:16.739Z,18.68
2018-06-14T18:53:45.481Z,18.66
2018-06-14T18:56:14.307Z,18.63
2018-06-14T18:58:43.163Z,18.68
2018-06-14T19:01:11.965Z,18.65
2018-06-14T19:03:40.740Z,18.68
2018-06-14T19:06:09.518Z,18.59
2018-06-14T19:08:38.298Z,18.65
2018-06-14T19:11:07.629Z,18.70
2018-06-14T19:13:36.438Z,18.66
2018-06-14T19:16:05.265Z,18.71
2018-06-14T19:18:34.073Z,18.50
2018-06-14T19:21:02.870Z,18.67
2018-06-14T19:23:31.676Z,18.51
2018-06-14T19:26:00.444Z,18.48
2018-06-14T19:28:29.231Z,18.46
2018-06-14T19:30:58.000Z,18.42
2018-06-14T19:33:26.785Z,18.52
2018-06-14T19:35:55.597Z,18.43
2018-06-14T19:38:24.362Z,18.47
2018-06-14T19:40:53.172Z,18.44
2018-06-14T19:43:22.038Z,18.40
2018-06-14T19:45:50.886Z,18.37
2018-06-14T19:48:19.639Z,18.35
2018-06-14T19:50:48.440Z,18.37
2018-06-14T19:53:17.213Z,18.29
2018-06-14T19:55:46.059Z,18.24
2018-06-14T19:58:14.866Z,18.31
2018-06-14T20:00:43.624Z,18.34
2018-06-14T20:03:12.356Z,18.13
2018-06-14T20:05:41.121Z,18.18
2018-06-14T20:08:09.885Z,18.23
2018-06-14T20:10:38.702Z,18.21
2018-06-14T20:13:07.482Z,18.21
2018-06-14T20:15:36.280Z,18.19
2018-06-14T20:18:05.110Z,18.18
2018-06-14T20:20:33.921Z,18.10
2018-06-14T20:23:02.723Z,18.14
2018-06-14T20:25:31.674Z,18.15
2018-06-14T20:28:00.414Z,18.15
2018-06-14T20:30:29.199Z,18.06
2018-06-14T20:32:57.985Z,18.13
2018-06-14T20:35:26.788Z,18.06
2018-06-14T20:37:55.542Z,18.04
2018-06-14T20:40:24.314Z,18.06
2018-06-14T20:42:53.109Z,18.05
2018-06-14T20:45:21.865Z,17.96
2018-06-14T20:47:51.374Z,18.02
2018-06-14T20:50:20.150Z,17.95
2018-06-14T20:52:48.922Z,17.91
2018-06-14T20:55:17.665Z,18.01
2018-06-14T20:57:46.434Z,17.79
2018-06-14T21:00:15.179Z,17.79
2018-06-14T21:02:43.962Z,17.89
2018-06-14T21:05:12.739Z,17.92
2018-06-14T21:07:41.514Z,17.95
2018-06-14T21:10:10.290Z,17.85
2018-06-14T21:12:39.061Z,17.87
2018-06-14T21:15:07.860Z,17.88
2018-06-14T21:17:36.668Z,17.62
2018-06-14T21:20:05.445Z,17.70
2018-06-14T21:22:34.192Z,17.79
2018-06-14T21:25:02.972Z,17.78
2018-06-14T21:27:31.766Z,17.71
2018-06-14T21:30:00.513Z,17.79
2018-06-14T21:32:29.307Z,17.80
2018-06-14T21:34:58.056Z,17.86
2018-06-14T21:37:26.807Z,17.90
2018-06-14T21:39:55.617Z,17.80
2018-06-14T21:42:24.484Z,17.69
2018-06-14T21:44:53.269Z,17.63
2018-06-14T21:47:22.096Z,17.64
2018-06-14T21:49:50.862Z,17.63
2018-06-14T21:52:19.633Z,17.70
2018-06-14T21:54:48.432Z,17.66
2018-06-14T21:57:17.231Z,17.60
2018-06-14T21:59:46.006Z,17.55
2018-06-14T22:02:14.838Z,17.66
2018-06-14T22:04:43.586Z,17.57
2018-06-14T22:07:14.362Z,17.50
2018-06-14T22:09:44.060Z,17.58
2018-06-14T22:12:13.298Z,17.50
2018-06-14T22:14:42.278Z,17.45
2018-06-14T22:17:11.780Z,17.51
2018-06-14T22:19:40.793Z,17.59
2018-06-14T22:22:09.667Z,17.45
2018-06-14T22:24:38.631Z,17.50
2018-06-14T22:27:07.511Z,17.42
2018-06-14T22:29:36.380Z,17.47
2018-06-14T22:32:05.399Z,17.49
2018-06-14T22:34:45.130Z,17.47
2018-06-14T22:37:14.059Z,17.41
2018-06-14T22:39:42.902Z,17.50
2018-06-14T22:42:11.774Z,17.40
2018-06-14T22:44:40.635Z,17.21
2018-06-14T22:47:09.473Z,17.25
2018-06-14T22:49:38.326Z,17.15
2018-06-14T22:53:10.903Z,17.10
2018-06-14T22:55:39.814Z,17.03
2018-06-14T22:58:08.652Z,17.17
2018-06-14T23:01:32.952Z,17.04
2018-06-14T23:04:02.336Z,16.94
2018-06-14T23:06:31.244Z,17.11
2018-06-14T23:09:01.120Z,16.96
2018-06-14T23:11:30.011Z,16.87
2018-06-14T23:13:58.872Z,16.97
2018-06-14T23:16:27.658Z,16.88
2018-06-14T23:18:56.422Z,16.85
2018-06-14T23:21:25.178Z,16.96
2018-06-14T23:23:54.145Z,16.88
2018-06-14T23:26:22.923Z,17.04
2018-06-14T23:28:51.697Z,16.99
2018-06-14T23:31:20.470Z,16.82
2018-06-14T23:33:49.214Z,16.84
2018-06-14T23:36:17.957Z,16.95
2018-06-14T23:38:46.866Z,16.83
2018-06-14T23:41:15.637Z,16.90
2018-06-14T23:43:44.408Z,16.76
2018-06-14T23:46:13.209Z,16.78
2018-06-14T23:48:42.005Z,16.93
2018-06-14T23:51:10.774Z,16.95
2018-06-14T23:53:39.574Z,16.85
2018-06-14T23:56:08.348Z,16.75
2018-06-14T23:58:37.114Z,16.93
